Time;durP1;ratioP1;P1;durP2;ratioP2;P2;SDS_P1;SDS_P2;PMS_P1;PMS_P2;Temp;Humidity;BMP_temperature;BMP_pressure;BME280_temperature;BME280_humidity;BME280_pressure;Samples;Min_cycle;Max_cycle;Signal;HPM_P1;HPM_P2
2021/05/09 00:02:51;;;;;;;21.17;11.60;;;22.90;30.60;;;;;;6067293;28;83043;-68
2021/05/09 00:05:52;;;;;;;20.23;11.82;;;22.90;30.70;;;;;;6063493;28;83407;-68
2021/05/09 00:08:52;;;;;;;22.02;12.00;;;22.90;30.80;;;;;;6060926;28;83336;-67
2021/05/09 00:11:53;;;;;;;20.25;11.63;;;22.90;30.50;;;;;;6061217;28;84468;-67
2021/05/09 00:14:53;;;;;;;22.63;12.55;;;22.90;30.40;;;;;;6061317;28;83049;-67
2021/05/09 00:17:54;;;;;;;17.42;11.48;;;22.90;30.90;;;;;;6059583;28;84643;-66
2021/05/09 00:20:54;;;;;;;19.92;11.30;;;22.90;30.70;;;;;;6056748;28;83664;-67
2021/05/09 00:23:55;;;;;;;20.38;12.02;;;22.90;30.70;;;;;;6077734;28;84432;-66
2021/05/09 00:26:55;;;;;;;21.17;11.27;;;22.90;30.70;;;;;;6057802;28;83087;-64
2021/05/09 00:29:56;;;;;;;21.67;11.75;;;22.90;30.40;;;;;;6060863;28;83347;-64
2021/05/09 00:32:56;;;;;;;21.10;11.82;;;22.90;30.50;;;;;;6057285;28;83757;-64
2021/05/09 00:35:57;;;;;;;19.67;11.07;;;22.90;30.40;;;;;;6058779;28;84725;-64
2021/05/09 00:38:57;;;;;;;24.23;12.77;;;22.80;30.40;;;;;;6056762;28;85906;-64
2021/05/09 00:41:58;;;;;;;19.48;11.23;;;22.90;30.30;;;;;;6061405;28;83091;-64
2021/05/09 00:44:58;;;;;;;20.73;12.23;;;22.80;30.70;;;;;;6042590;28;84157;-64
2021/05/09 00:47:59;;;;;;;20.02;11.85;;;22.90;30.80;;;;;;6057894;28;83879;-64
2021/05/09 00:51:00;;;;;;;19.63;11.05;;;22.80;30.60;;;;;;6058979;28;83056;-67
2021/05/09 00:54:00;;;;;;;19.75;10.93;;;22.80;30.40;;;;;;6063451;28;85812;-67
2021/05/09 00:57:01;;;;;;;20.98;10.85;;;22.80;30.60;;;;;;6062305;28;83110;-66
2021/05/09 01:00:01;;;;;;;18.38;9.88;;;22.80;30.80;;;;;;6058342;28;84432;-65
2021/05/09 01:03:05;;;;;;;18.23;11.05;;;22.80;30.50;;;;;;6064140;28;85655;-64
2021/05/09 01:06:06;;;;;;;16.27;9.60;;;22.80;30.50;;;;;;6057500;28;83597;-64
2021/05/09 01:09:07;;;;;;;17.80;10.70;;;22.80;30.70;;;;;;6057710;28;84054;-65
2021/05/09 01:12:09;;;;;;;20.70;10.82;;;22.80;30.70;;;;;;6060988;28;83126;-64
2021/05/09 01:15:10;;;;;;;17.30;9.77;;;22.80;30.60;;;;;;6058624;28;86057;-64
2021/05/09 01:18:11;;;;;;;20.70;10.85;;;22.80;30.80;;;;;;6061411;28;83048;-65
2021/05/09 01:21:12;;;;;;;15.77;9.63;;;22.80;30.60;;;;;;6082198;28;83258;-66
2021/05/09 01:24:12;;;;;;;19.23;10.20;;;22.80;30.60;;;;;;6071216;28;82541;-67
2021/05/09 01:27:13;;;;;;;17.10;10.05;;;22.80;30.60;;;;;;6041307;28;82962;-66
2021/05/09 01:30:13;;;;;;;18.70;10.45;;;22.90;30.50;;;;;;6068178;28;85549;-65
2021/05/09 01:33:15;;;;;;;20.88;10.32;;;22.80;30.50;;;;;;6060479;28;83985;-66
2021/05/09 01:36:15;;;;;;;18.02;10.77;;;22.80;30.70;;;;;;6056456;28;83975;-66
2021/05/09 01:39:16;;;;;;;19.83;10.88;;;22.80;30.00;;;;;;6058471;28;85716;-67
2021/05/09 01:42:17;;;;;;;18.05;9.80;;;22.80;30.00;;;;;;6072854;28;88485;-67
2021/05/09 01:45:18;;;;;;;17.38;10.63;;;22.80;30.00;;;;;;6063343;28;82361;-66
2021/05/09 01:48:19;;;;;;;19.08;10.55;;;22.80;30.20;;;;;;6075940;28;83210;-66
2021/05/09 01:51:21;;;;;;;19.13;10.88;;;22.80;30.60;;;;;;6063916;28;83565;-66
2021/05/09 01:54:22;;;;;;;18.83;10.55;;;22.80;30.50;;;;;;6051757;28;85483;-66
2021/05/09 01:57:23;;;;;;;18.98;10.45;;;22.80;30.70;;;;;;6065243;28;85628;-66
2021/05/09 02:00:27;;;;;;;17.73;11.57;;;22.80;30.60;;;;;;6060198;28;84425;-66
2021/05/09 02:03:38;;;;;;;22.45;11.90;;;22.80;30.20;;;;;;6057797;28;85678;-66
2021/05/09 02:06:39;;;;;;;20.95;11.45;;;22.80;30.20;;;;;;6067411;28;84240;-66
2021/05/09 02:09:39;;;;;;;20.83;11.75;;;22.80;30.70;;;;;;6057452;28;84267;-65
2021/05/09 02:12:40;;;;;;;18.45;10.68;;;22.80;30.40;;;;;;6073623;28;85560;-65
2021/05/09 02:15:50;;;;;;;18.50;10.43;;;22.80;30.70;;;;;;6055084;28;85212;-67
2021/05/09 02:18:52;;;;;;;17.33;10.75;;;22.80;30.80;;;;;;6062285;28;85714;-66
2021/05/09 02:21:56;;;;;;;19.05;11.60;;;22.80;30.80;;;;;;6042817;28;84092;-65
2021/05/09 02:24:57;;;;;;;22.73;12.10;;;22.80;30.60;;;;;;6073786;28;83866;-66
2021/05/09 02:27:58;;;;;;;21.77;12.00;;;22.80;30.90;;;;;;6056812;28;85368;-66
2021/05/09 02:30:58;;;;;;;21.52;11.85;;;22.80;31.10;;;;;;6054792;28;83070;-66
2021/05/09 02:33:59;;;;;;;19.58;11.38;;;22.80;31.10;;;;;;6056320;28;85519;-66
2021/05/09 02:37:00;;;;;;;20.50;11.73;;;22.80;30.80;;;;;;6059820;28;84133;-66
2021/05/09 02:40:00;;;;;;;23.15;12.13;;;22.80;31.10;;;;;;6056310;28;85477;-66
2021/05/09 02:43:01;;;;;;;21.10;11.95;;;22.80;31.20;;;;;;6061306;28;83964;-65
2021/05/09 02:46:02;;;;;;;20.85;12.25;;;22.80;31.00;;;;;;6056358;28;85831;-66
2021/05/09 02:49:02;;;;;;;20.20;11.52;;;22.80;31.20;;;;;;6054404;28;87651;-65
2021/05/09 02:52:03;;;;;;;21.05;11.27;;;22.80;31.10;;;;;;6054287;28;86008;-66
2021/05/09 02:55:05;;;;;;;26.30;12.63;;;22.80;31.20;;;;;;6056389;28;83780;-66
2021/05/09 02:58:06;;;;;;;25.75;13.10;;;22.80;31.40;;;;;;6073306;28;85528;-66
2021/05/09 03:01:08;;;;;;;21.23;11.88;;;22.80;31.10;;;;;;6074239;28;83309;-67
2021/05/09 03:04:09;;;;;;;21.20;11.77;;;22.80;31.00;;;;;;6061475;28;84695;-66
2021/05/09 03:07:10;;;;;;;21.58;11.75;;;22.80;31.30;;;;;;6076409;28;84865;-66
2021/05/09 03:10:11;;;;;;;22.80;12.63;;;22.80;31.00;;;;;;6059329;28;85838;-66
2021/05/09 03:13:12;;;;;;;20.27;13.07;;;22.80;31.20;;;;;;6057996;28;85098;-67
2021/05/09 03:16:12;;;;;;;20.33;11.85;;;22.80;31.00;;;;;;6064401;28;85971;-66
2021/05/09 03:19:13;;;;;;;20.85;11.68;;;22.80;31.30;;;;;;6060497;28;82867;-66
2021/05/09 03:22:13;;;;;;;21.30;12.10;;;22.80;31.20;;;;;;6064271;28;83230;-66
2021/05/09 03:25:14;;;;;;;22.73;12.00;;;22.70;31.00;;;;;;6062030;28;83163;-66
2021/05/09 03:28:14;;;;;;;19.65;11.95;;;22.70;31.40;;;;;;6065484;28;83812;-66
2021/05/09 03:31:15;;;;;;;20.42;11.93;;;22.80;31.20;;;;;;6061834;28;83232;-66
2021/05/09 03:34:16;;;;;;;20.85;12.68;;;22.80;31.10;;;;;;6064467;28;83399;-66
2021/05/09 03:37:16;;;;;;;24.10;12.60;;;22.80;31.00;;;;;;6070846;28;84930;-66
2021/05/09 03:40:17;;;;;;;22.33;13.30;;;22.80;31.30;;;;;;6067066;28;84374;-66
2021/05/09 03:43:17;;;;;;;21.63;11.55;;;22.80;31.10;;;;;;6058941;28;83879;-66
2021/05/09 03:46:18;;;;;;;23.85;12.57;;;22.80;30.70;;;;;;6064304;28;83332;-67
2021/05/09 03:49:19;;;;;;;20.52;12.07;;;22.80;31.00;;;;;;6074186;28;85972;-64
2021/05/09 03:52:20;;;;;;;24.48;13.52;;;22.70;31.10;;;;;;6063470;28;83528;-64
2021/05/09 03:55:20;;;;;;;22.00;12.10;;;22.80;31.90;;;;;;6067457;28;83237;-65
2021/05/09 03:58:21;;;;;;;21.73;12.35;;;22.80;32.10;;;;;;6050707;28;83119;-64
2021/05/09 04:01:21;;;;;;;27.90;12.38;;;22.80;32.10;;;;;;6054744;28;83543;-65
2021/05/09 04:04:22;;;;;;;24.92;12.50;;;22.80;32.20;;;;;;6055369;28;83487;-65
2021/05/09 04:07:22;;;;;;;22.80;12.07;;;22.80;32.40;;;;;;6058688;28;83643;-64
2021/05/09 04:10:23;;;;;;;24.48;11.93;;;22.80;33.00;;;;;;6058621;28;85408;-65
2021/05/09 04:13:23;;;;;;;19.52;11.30;;;22.80;32.70;;;;;;6057296;28;83126;-64
2021/05/09 04:16:24;;;;;;;19.52;11.18;;;22.80;32.90;;;;;;6048356;28;83069;-65
2021/05/09 04:19:24;;;;;;;20.38;11.30;;;22.80;32.50;;;;;;6056840;28;82996;-64
2021/05/09 04:22:25;;;;;;;19.63;11.27;;;22.80;32.30;;;;;;6055135;28;84148;-64
2021/05/09 04:25:25;;;;;;;20.40;11.95;;;22.80;33.20;;;;;;6057694;28;83386;-66
2021/05/09 04:28:26;;;;;;;21.05;10.65;;;22.80;32.30;;;;;;6048655;28;85084;-64
2021/05/09 04:31:26;;;;;;;24.00;12.07;;;22.80;33.40;;;;;;6051071;28;84038;-65
2021/05/09 04:34:27;;;;;;;19.98;11.82;;;22.90;33.30;;;;;;6056851;28;84201;-64
2021/05/09 04:37:27;;;;;;;23.13;12.00;;;22.90;33.20;;;;;;6053574;28;83328;-64
2021/05/09 04:40:28;;;;;;;22.33;11.13;;;22.90;33.30;;;;;;6070138;28;86142;-63
2021/05/09 04:43:28;;;;;;;19.23;10.63;;;22.90;33.20;;;;;;6053220;28;83098;-64
2021/05/09 04:46:29;;;;;;;18.85;10.48;;;22.90;33.50;;;;;;6061144;28;83298;-65
2021/05/09 04:49:29;;;;;;;21.25;10.98;;;22.90;32.60;;;;;;6055203;28;83721;-65
2021/05/09 04:52:30;;;;;;;19.58;11.02;;;23.00;33.50;;;;;;6059030;28;83340;-65
2021/05/09 04:55:31;;;;;;;19.65;10.50;;;23.00;33.20;;;;;;6054617;28;83165;-63
2021/05/09 04:58:31;;;;;;;21.27;11.05;;;23.00;33.10;;;;;;6055995;28;83381;-64
2021/05/09 05:01:31;;;;;;;17.85;10.73;;;23.00;32.80;;;;;;6046994;28;83289;-63
2021/05/09 05:04:32;;;;;;;22.17;11.32;;;23.00;32.90;;;;;;6057328;28;86509;-62
2021/05/09 05:07:33;;;;;;;20.42;11.27;;;23.00;33.10;;;;;;6060168;28;83506;-63
2021/05/09 05:10:33;;;;;;;19.55;11.55;;;23.00;34.00;;;;;;6057758;28;83206;-63
2021/05/09 05:13:34;;;;;;;16.58;9.98;;;23.00;34.00;;;;;;6060779;28;83302;-64
2021/05/09 05:16:35;;;;;;;16.00;8.93;;;23.00;34.80;;;;;;6057023;28;84462;-63
2021/05/09 05:19:35;;;;;;;20.40;10.95;;;23.00;33.50;;;;;;6063244;28;83557;-63
2021/05/09 05:22:36;;;;;;;18.40;10.48;;;23.00;33.60;;;;;;6048632;28;84902;-63
2021/05/09 05:25:36;;;;;;;25.25;12.02;;;23.00;34.30;;;;;;6065105;28;83000;-63
2021/05/09 05:28:37;;;;;;;19.42;11.02;;;23.10;34.60;;;;;;6058245;28;82897;-64
2021/05/09 05:31:37;;;;;;;19.83;10.98;;;23.10;34.60;;;;;;6065992;28;83238;-63
2021/05/09 05:34:38;;;;;;;22.30;12.32;;;23.10;34.70;;;;;;6058069;28;84689;-62
2021/05/09 05:37:38;;;;;;;22.50;11.43;;;23.10;35.00;;;;;;6071016;28;83809;-62
2021/05/09 05:40:39;;;;;;;21.60;11.45;;;23.10;35.30;;;;;;6058972;28;83281;-62
2021/05/09 05:43:39;;;;;;;23.45;11.50;;;23.10;35.60;;;;;;6059611;28;83017;-63
2021/05/09 05:46:40;;;;;;;21.48;11.88;;;23.10;35.90;;;;;;6054720;28;83653;-63
2021/05/09 05:49:40;;;;;;;19.17;10.80;;;23.20;36.00;;;;;;6056637;28;83124;-63
2021/05/09 05:52:42;;;;;;;17.95;10.50;;;23.20;36.00;;;;;;6060830;28;84047;-62
2021/05/09 05:55:42;;;;;;;22.38;11.52;;;23.20;36.20;;;;;;6053953;28;83723;-63
2021/05/09 05:58:43;;;;;;;19.75;10.63;;;23.20;36.60;;;;;;6055963;28;82931;-63
2021/05/09 06:01:43;;;;;;;20.80;10.85;;;23.20;36.60;;;;;;6062601;28;83874;-62
2021/05/09 06:04:44;;;;;;;23.00;11.60;;;23.30;36.90;;;;;;6060921;28;85180;-63
2021/05/09 06:07:44;;;;;;;22.17;10.75;;;23.30;37.00;;;;;;6054457;28;84192;-66
2021/05/09 06:10:45;;;;;;;23.80;11.45;;;23.20;36.80;;;;;;6032218;28;83786;-62
2021/05/09 06:13:46;;;;;;;19.50;11.05;;;23.20;36.80;;;;;;6055556;28;82806;-62
2021/05/09 06:16:46;;;;;;;22.67;10.77;;;23.20;36.60;;;;;;6059040;28;83443;-64
2021/05/09 06:19:47;;;;;;;20.50;10.80;;;23.30;36.70;;;;;;6064569;28;83191;-62
2021/05/09 06:22:47;;;;;;;20.30;10.95;;;23.30;36.60;;;;;;6054378;28;84551;-63
2021/05/09 06:25:48;;;;;;;19.92;10.80;;;23.30;36.60;;;;;;6058964;28;84093;-62
2021/05/09 06:28:48;;;;;;;19.00;10.43;;;23.30;37.20;;;;;;6061408;28;83284;-62
2021/05/09 06:31:49;;;;;;;20.98;10.38;;;23.30;38.50;;;;;;6055187;28;83059;-62
2021/05/09 06:34:49;;;;;;;23.45;10.05;;;23.30;38.00;;;;;;6060280;28;84074;-61
2021/05/09 06:37:52;;;;;;;20.10;9.85;;;23.30;38.60;;;;;;6059231;28;86747;-62
2021/05/09 06:40:53;;;;;;;18.75;9.65;;;23.30;39.90;;;;;;6079713;28;86627;-64
2021/05/09 06:43:56;;;;;;;19.23;9.35;;;23.30;40.90;;;;;;6063787;28;81287;-65
2021/05/09 06:46:57;;;;;;;17.00;9.77;;;23.30;41.40;;;;;;6067751;28;83798;-64
2021/05/09 06:49:58;;;;;;;15.02;9.43;;;23.30;44.80;;;;;;6055174;28;80313;-65
2021/05/09 06:52:58;;;;;;;13.93;8.50;;;23.30;47.10;;;;;;6065222;28;80511;-65
2021/05/09 06:55:59;;;;;;;20.40;8.65;;;23.30;46.40;;;;;;6068439;28;81540;-64
2021/05/09 06:58:59;;;;;;;13.93;8.40;;;23.30;46.80;;;;;;6058560;28;81726;-65
2021/05/09 07:02:00;;;;;;;13.45;7.40;;;23.40;47.50;;;;;;6056892;28;90208;-64
2021/05/09 07:05:00;;;;;;;13.95;7.18;;;23.40;46.20;;;;;;6065351;28;80731;-64
2021/05/09 07:08:01;;;;;;;14.52;7.43;;;23.40;49.60;;;;;;6065529;28;80340;-63
2021/05/09 07:11:02;;;;;;;13.93;7.22;;;23.40;49.00;;;;;;6054767;28;80898;-64
2021/05/09 07:14:02;;;;;;;10.77;7.60;;;23.40;50.10;;;;;;6060202;28;81458;-63
2021/05/09 07:17:03;;;;;;;10.05;6.28;;;23.40;50.00;;;;;;6061934;28;80471;-64
2021/05/09 07:20:03;;;;;;;14.13;7.00;;;23.40;49.40;;;;;;6058638;28;80876;-63
2021/05/09 07:23:06;;;;;;;12.02;5.95;;;23.40;48.80;;;;;;6052292;28;80167;-63
2021/05/09 07:26:09;;;;;;;8.13;5.15;;;23.50;48.10;;;;;;6052163;28;81469;-64
2021/05/09 07:29:09;;;;;;;12.38;6.00;;;23.50;47.40;;;;;;6060483;28;80462;-64
2021/05/09 07:32:10;;;;;;;55.03;14.82;;;23.50;42.30;;;;;;6060170;28;81321;-64
2021/05/09 07:35:10;;;;;;;87.15;22.88;;;23.40;42.90;;;;;;6062997;28;83305;-63
2021/05/09 07:38:11;;;;;;;163.23;39.10;;;23.40;41.70;;;;;;6052177;28;83786;-66
2021/05/09 07:41:12;;;;;;;206.70;52.13;;;23.40;40.90;;;;;;6052008;28;83741;-62
2021/05/09 07:44:12;;;;;;;221.77;52.90;;;23.50;43.70;;;;;;6052174;28;83448;-64
2021/05/09 07:47:13;;;;;;;274.30;71.95;;;23.40;40.60;;;;;;6062812;28;83321;-63
2021/05/09 07:50:13;;;;;;;220.43;59.00;;;23.40;41.90;;;;;;6058815;28;83834;-64
2021/05/09 07:53:14;;;;;;;184.07;51.03;;;23.40;40.50;;;;;;6063774;28;84310;-64
2021/05/09 07:56:14;;;;;;;182.70;48.92;;;23.40;39.10;;;;;;6057165;28;84014;-64
2021/05/09 07:59:15;;;;;;;165.57;44.10;;;23.40;39.10;;;;;;6053501;28;84058;-63
2021/05/09 08:02:15;;;;;;;128.88;34.40;;;23.50;38.80;;;;;;6054354;28;83191;-64
2021/05/09 08:05:16;;;;;;;101.13;29.35;;;23.50;36.70;;;;;;6057691;28;83089;-64
2021/05/09 08:08:16;;;;;;;95.40;25.45;;;23.40;36.30;;;;;;6062941;28;83851;-64
2021/05/09 08:11:17;;;;;;;75.55;20.80;;;23.40;35.20;;;;;;6064658;28;83329;-65
2021/05/09 08:14:17;;;;;;;58.92;16.98;;;23.40;34.80;;;;;;6058682;28;83376;-64
2021/05/09 08:17:18;;;;;;;46.58;13.77;;;23.40;35.00;;;;;;6062116;28;83989;-64
2021/05/09 08:20:18;;;;;;;33.17;10.30;;;23.40;34.50;;;;;;6061882;28;82938;-65
2021/05/09 08:23:20;;;;;;;33.88;9.77;;;23.30;33.40;;;;;;6072761;28;85997;-64
2021/05/09 08:26:21;;;;;;;25.60;8.40;;;23.40;32.80;;;;;;6062046;28;82898;-64
2021/05/09 08:29:21;;;;;;;20.20;6.70;;;23.40;32.80;;;;;;6066192;28;81676;-64
2021/05/09 08:32:22;;;;;;;15.63;6.00;;;23.30;32.90;;;;;;6056860;28;81425;-66
2021/05/09 08:35:22;;;;;;;12.55;3.92;;;23.30;31.80;;;;;;6068111;28;80527;-63
2021/05/09 08:38:24;;;;;;;8.55;3.60;;;23.30;31.50;;;;;;6070198;28;80567;-63
2021/05/09 08:41:25;;;;;;;8.25;3.50;;;23.30;31.80;;;;;;6061594;28;80266;-65
2021/05/09 08:44:26;;;;;;;5.90;3.15;;;23.40;30.90;;;;;;6064016;28;82746;-66
2021/05/09 08:47:42;;;;;;;7.13;2.67;;;23.40;31.00;;;;;;6061440;28;80282;-64
2021/05/09 08:50:43;;;;;;;5.28;2.60;;;23.40;31.10;;;;;;6046090;28;80623;-62
2021/05/09 08:53:43;;;;;;;4.45;2.33;;;23.40;30.00;;;;;;6047704;28;80732;-63
2021/05/09 08:56:44;;;;;;;2.53;2.00;;;23.40;30.20;;;;;;6059735;28;80525;-64
2021/05/09 08:59:44;;;;;;;2.67;1.92;;;23.40;30.10;;;;;;6053859;28;81657;-65
2021/05/09 09:02:45;;;;;;;2.70;2.20;;;23.40;29.70;;;;;;6051234;28;83327;-64
2021/05/09 09:05:45;;;;;;;4.25;2.30;;;23.40;30.00;;;;;;6060890;28;80692;-64
2021/05/09 09:08:46;;;;;;;3.78;1.70;;;23.40;30.80;;;;;;6067747;28;80819;-63
2021/05/09 09:11:46;;;;;;;5.15;1.80;;;23.40;30.60;;;;;;6062910;28;80260;-64
2021/05/09 09:14:47;;;;;;;2.75;1.60;;;23.40;31.10;;;;;;6060128;28;80942;-64
2021/05/09 09:17:48;;;;;;;2.25;1.42;;;23.40;30.20;;;;;;6060995;28;80490;-63
2021/05/09 09:20:48;;;;;;;3.58;1.95;;;23.40;30.50;;;;;;6058540;28;83134;-64
2021/05/09 09:23:49;;;;;;;4.88;1.83;;;23.30;30.00;;;;;;6058846;28;81443;-63
2021/05/09 09:26:50;;;;;;;2.08;1.67;;;23.30;29.60;;;;;;6060131;28;80701;-66
2021/05/09 09:29:50;;;;;;;3.22;1.75;;;23.40;29.90;;;;;;6056641;28;81391;-64
2021/05/09 09:32:51;;;;;;;3.55;1.75;;;23.40;29.70;;;;;;6052957;28;80450;-66
2021/05/09 09:35:57;;;;;;;4.10;2.25;;;23.40;29.60;;;;;;6061542;28;80663;-65
2021/05/09 09:38:57;;;;;;;2.05;1.73;;;23.50;29.40;;;;;;6059469;28;82702;-66
2021/05/09 09:41:58;;;;;;;21.40;1.92;;;23.50;29.50;;;;;;6063530;28;81481;-65
2021/05/09 09:44:58;;;;;;;3.08;2.22;;;23.50;29.90;;;;;;6061915;28;83491;-64
2021/05/09 09:48:02;;;;;;;3.63;2.00;;;23.50;30.80;;;;;;6061572;28;83431;-63
2021/05/09 09:51:03;;;;;;;3.85;1.70;;;23.50;31.20;;;;;;6052588;28;84943;-64
2021/05/09 09:54:03;;;;;;;2.30;1.70;;;23.50;32.20;;;;;;6049932;28;80510;-64
2021/05/09 09:57:04;;;;;;;2.35;1.92;;;23.50;33.30;;;;;;6050661;28;80682;-64
2021/05/09 10:00:04;;;;;;;3.25;1.80;;;23.50;33.20;;;;;;6050534;28;81919;-64
2021/05/09 10:03:05;;;;;;;2.25;1.88;;;23.50;33.40;;;;;;6064609;28;80554;-65
2021/05/09 10:06:06;;;;;;;2.90;1.95;;;23.60;32.80;;;;;;6062332;28;81325;-64
2021/05/09 10:09:06;;;;;;;1.63;1.50;;;23.60;32.90;;;;;;6060376;28;80200;-65
2021/05/09 10:12:07;;;;;;;2.22;1.52;;;23.60;35.60;;;;;;6060218;28;80333;-65
2021/05/09 10:15:07;;;;;;;3.35;1.77;;;23.60;35.00;;;;;;6059228;28;80833;-68
2021/05/09 10:18:08;;;;;;;2.28;1.50;;;23.60;34.20;;;;;;6058029;28;80499;-64
2021/05/09 10:21:10;;;;;;;2.80;1.83;;;23.60;36.10;;;;;;6060003;28;80402;-64
2021/05/09 10:24:10;;;;;;;2.40;1.80;;;23.60;33.20;;;;;;6061454;28;80683;-62
2021/05/09 10:27:11;;;;;;;1.85;1.60;;;23.60;32.80;;;;;;6057759;28;80770;-64
2021/05/09 10:30:11;;;;;;;3.30;1.42;;;23.60;32.00;;;;;;6059754;28;80461;-65
2021/05/09 10:33:12;;;;;;;2.58;1.60;;;23.60;31.70;;;;;;6060022;28;80785;-66
2021/05/09 10:36:12;;;;;;;1.48;1.35;;;23.60;32.00;;;;;;6052945;28;80464;-66
2021/05/09 10:39:13;;;;;;;1.92;1.63;;;23.60;31.50;;;;;;6058789;28;80844;-66
2021/05/09 10:42:14;;;;;;;1.70;1.60;;;23.60;31.00;;;;;;6053867;28;80946;-66
2021/05/09 10:45:14;;;;;;;2.00;1.70;;;23.60;31.00;;;;;;6059753;28;82725;-67
2021/05/09 10:48:15;;;;;;;5.97;1.50;;;23.60;30.10;;;;;;6062161;28;81039;-65
2021/05/09 10:51:16;;;;;;;2.58;1.75;;;23.70;30.50;;;;;;6059722;28;80821;-66
2021/05/09 10:54:16;;;;;;;1.75;1.50;;;23.70;30.70;;;;;;6060921;28;80529;-67
2021/05/09 10:57:17;;;;;;;2.22;1.90;;;23.70;30.00;;;;;;6061550;28;80838;-66
2021/05/09 11:00:17;;;;;;;1.88;1.42;;;23.70;30.30;;;;;;6061274;28;81664;-65
2021/05/09 11:03:18;;;;;;;1.77;1.30;;;23.70;30.00;;;;;;6059453;28;80952;-67
2021/05/09 11:06:18;;;;;;;5.05;1.45;;;23.70;30.10;;;;;;6066018;28;81079;-65
2021/05/09 11:09:19;;;;;;;1.67;1.30;;;23.80;30.00;;;;;;6059358;28;80793;-64
2021/05/09 11:12:20;;;;;;;6.38;1.23;;;23.70;29.10;;;;;;6064130;28;80422;-64
2021/05/09 11:15:21;;;;;;;1.92;1.40;;;23.70;29.70;;;;;;6053717;28;80454;-69
2021/05/09 11:18:21;;;;;;;4.28;1.63;;;23.70;28.90;;;;;;6063348;28;82305;-66
2021/05/09 11:21:22;;;;;;;1.73;1.48;;;23.70;28.10;;;;;;6062194;28;82879;-64
2021/05/09 11:24:23;;;;;;;2.40;1.52;;;23.80;28.50;;;;;;6061896;28;81737;-67
2021/05/09 11:27:23;;;;;;;1.73;1.30;;;23.70;27.90;;;;;;6063342;28;81620;-70
2021/05/09 11:30:24;;;;;;;1.45;1.25;;;23.60;28.10;;;;;;6066136;28;81655;-69
2021/05/09 11:33:24;;;;;;;1.40;1.30;;;23.60;27.80;;;;;;6053569;28;80343;-67
2021/05/09 11:36:25;;;;;;;5.47;1.10;;;23.60;27.70;;;;;;6061633;28;81865;-64
2021/05/09 11:39:25;;;;;;;1.95;1.42;;;23.70;27.70;;;;;;6062623;28;80804;-66
2021/05/09 11:42:26;;;;;;;1.65;1.40;;;23.60;27.10;;;;;;6063660;28;80189;-67
2021/05/09 11:45:26;;;;;;;2.03;1.40;;;23.70;27.40;;;;;;6061723;28;82880;-69
2021/05/09 11:48:27;;;;;;;1.60;1.05;;;23.80;27.50;;;;;;6051087;28;82803;-67
2021/05/09 11:51:27;;;;;;;2.55;1.17;;;23.80;27.40;;;;;;6060362;28;80818;-68
2021/05/09 11:54:28;;;;;;;2.03;1.20;;;23.80;27.70;;;;;;6060114;28;82077;-66
2021/05/09 11:57:28;;;;;;;2.05;1.10;;;23.80;28.00;;;;;;6065207;28;80267;-68
2021/05/09 12:00:29;;;;;;;1.55;1.45;;;23.80;28.40;;;;;;6062238;28;80266;-68
2021/05/09 12:03:29;;;;;;;2.30;1.20;;;23.80;28.80;;;;;;6062777;28;80722;-66
2021/05/09 12:06:31;;;;;;;3.22;1.40;;;23.80;28.60;;;;;;6060425;28;81151;-69
2021/05/09 12:09:31;;;;;;;1.60;1.50;;;23.80;28.30;;;;;;6064776;28;80581;-67
2021/05/09 12:12:32;;;;;;;1.20;0.90;;;23.80;27.80;;;;;;6065603;28;81106;-68
2021/05/09 12:15:33;;;;;;;1.27;1.17;;;23.80;27.70;;;;;;6060998;28;80460;-68
2021/05/09 12:18:33;;;;;;;5.82;1.50;;;23.80;28.00;;;;;;6064409;28;81707;-67
2021/05/09 12:21:34;;;;;;;2.92;1.27;;;23.70;27.20;;;;;;6059682;28;80607;-68
2021/05/09 12:24:34;;;;;;;1.85;1.20;;;23.70;27.10;;;;;;6065740;28;80482;-68
2021/05/09 12:27:35;;;;;;;1.77;1.13;;;23.60;26.90;;;;;;6060882;28;84193;-68
2021/05/09 12:30:35;;;;;;;2.53;1.33;;;23.60;27.00;;;;;;6059893;28;80914;-67
2021/05/09 12:33:36;;;;;;;2.38;1.33;;;23.70;27.50;;;;;;6064278;28;80496;-70
2021/05/09 12:36:38;;;;;;;1.52;0.90;;;23.80;27.60;;;;;;6054245;28;80924;-70
2021/05/09 12:39:38;;;;;;;1.67;1.00;;;23.80;27.60;;;;;;6050452;28;80891;-69
2021/05/09 12:42:39;;;;;;;2.30;1.10;;;23.80;27.30;;;;;;6062392;28;82892;-67
2021/05/09 12:45:40;;;;;;;1.20;1.10;;;23.90;27.60;;;;;;6063565;28;81960;-68
2021/05/09 12:48:40;;;;;;;2.90;1.33;;;23.80;27.10;;;;;;6060635;28;80822;-68
2021/05/09 12:51:41;;;;;;;1.08;0.98;;;23.80;27.00;;;;;;6063338;28;80356;-67
2021/05/09 12:54:42;;;;;;;1.38;1.10;;;23.80;27.30;;;;;;6066748;28;80995;-66
2021/05/09 12:57:42;;;;;;;3.13;1.45;;;23.80;27.10;;;;;;6062348;28;80399;-67
2021/05/09 13:00:43;;;;;;;1.33;1.23;;;23.80;27.20;;;;;;6061581;28;83602;-67
2021/05/09 13:03:44;;;;;;;3.05;1.35;;;23.80;27.20;;;;;;6058606;28;83322;-66
2021/05/09 13:06:44;;;;;;;4.43;2.40;;;23.90;27.40;;;;;;6064228;28;84711;-68
2021/05/09 13:09:45;;;;;;;2.65;1.63;;;23.90;27.40;;;;;;6053744;28;80585;-68
2021/05/09 13:12:45;;;;;;;3.70;1.95;;;23.90;27.20;;;;;;6069023;28;80763;-68
2021/05/09 13:15:46;;;;;;;3.22;1.90;;;23.90;27.60;;;;;;6069532;28;80455;-66
2021/05/09 13:18:48;;;;;;;3.67;1.75;;;24.00;27.80;;;;;;6059457;28;80381;-67
2021/05/09 13:21:49;;;;;;;3.03;1.92;;;24.00;28.30;;;;;;6060525;28;81320;-66
2021/05/09 13:24:51;;;;;;;6.85;1.85;;;24.00;28.20;;;;;;6067199;28;81649;-65
2021/05/09 13:27:52;;;;;;;1.20;1.10;;;24.10;28.20;;;;;;6048335;28;80443;-64
2021/05/09 13:30:52;;;;;;;2.75;1.52;;;24.10;28.50;;;;;;6053434;28;80526;-64
2021/05/09 13:33:53;;;;;;;2.17;1.52;;;24.10;28.60;;;;;;6056814;28;80382;-65
2021/05/09 13:36:53;;;;;;;4.47;1.50;;;24.10;28.50;;;;;;6058948;28;80726;-64
2021/05/09 13:39:54;;;;;;;4.72;1.52;;;24.10;28.60;;;;;;6057404;28;81434;-66
2021/05/09 13:42:54;;;;;;;1.75;1.48;;;24.10;29.10;;;;;;6055795;28;81380;-66
2021/05/09 13:45:55;;;;;;;1.83;1.20;;;24.10;29.80;;;;;;6062255;28;81422;-66
2021/05/09 13:48:56;;;;;;;2.53;1.40;;;24.10;29.60;;;;;;6057668;28;81739;-64
2021/05/09 13:51:57;;;;;;;1.42;1.20;;;24.10;30.00;;;;;;6053648;28;80506;-68
2021/05/09 13:54:57;;;;;;;1.73;1.35;;;24.20;29.70;;;;;;6056036;28;83080;-65
2021/05/09 13:57:58;;;;;;;1.30;1.20;;;24.20;29.70;;;;;;6063164;28;81756;-66
2021/05/09 14:00:58;;;;;;;2.88;1.20;;;24.10;30.10;;;;;;6062716;28;80427;-65
2021/05/09 14:04:00;;;;;;;1.50;1.20;;;24.20;30.00;;;;;;6062610;28;80652;-66
2021/05/09 14:07:00;;;;;;;1.27;1.17;;;24.10;29.40;;;;;;6061471;28;81156;-65
2021/05/09 14:10:01;;;;;;;1.45;1.13;;;24.20;29.80;;;;;;6064797;28;80358;-66
2021/05/09 14:13:02;;;;;;;3.22;1.40;;;24.20;29.70;;;;;;6060987;28;80133;-66
2021/05/09 14:16:02;;;;;;;2.15;1.20;;;24.10;29.50;;;;;;6064934;28;80475;-66
2021/05/09 14:19:03;;;;;;;2.20;1.60;;;24.20;29.80;;;;;;6063341;28;81824;-66
2021/05/09 14:22:03;;;;;;;1.73;1.17;;;24.10;29.10;;;;;;6060230;28;80513;-65
2021/05/09 14:25:04;;;;;;;1.50;1.25;;;24.10;29.30;;;;;;6065492;28;80447;-66
2021/05/09 14:28:04;;;;;;;2.08;1.30;;;24.20;29.40;;;;;;6060294;28;81810;-65
2021/05/09 14:31:05;;;;;;;1.65;1.15;;;24.20;29.30;;;;;;6061758;28;81705;-65
2021/05/09 14:34:05;;;;;;;3.90;1.27;;;24.10;29.20;;;;;;6064170;28;82077;-66
2021/05/09 14:37:06;;;;;;;4.30;1.40;;;24.20;29.20;;;;;;6065425;28;81415;-66
2021/05/09 14:40:06;;;;;;;4.85;1.40;;;24.20;29.30;;;;;;6059564;28;80500;-67
2021/05/09 14:43:07;;;;;;;2.95;1.27;;;24.20;29.80;;;;;;6055171;28;80412;-66
2021/05/09 14:46:07;;;;;;;2.03;1.33;;;24.10;29.90;;;;;;6062781;28;80545;-66
2021/05/09 14:49:08;;;;;;;1.05;1.00;;;24.10;30.00;;;;;;6063713;28;82470;-65
2021/05/09 14:52:08;;;;;;;13.55;1.38;;;24.20;30.80;;;;;;6063364;28;83386;-65
2021/05/09 14:55:09;;;;;;;1.27;1.17;;;24.10;30.20;;;;;;6064478;28;80550;-65
2021/05/09 14:58:09;;;;;;;2.08;1.10;;;24.10;29.80;;;;;;6064349;28;81249;-66
2021/05/09 15:01:10;;;;;;;1.90;1.15;;;24.10;29.60;;;;;;6058711;28;81171;-66
2021/05/09 15:04:10;;;;;;;1.63;1.20;;;24.10;30.40;;;;;;6060523;28;81768;-66
2021/05/09 15:07:11;;;;;;;1.80;1.08;;;24.10;30.00;;;;;;6064200;28;80305;-67
2021/05/09 15:10:12;;;;;;;1.17;1.00;;;24.20;30.00;;;;;;6070848;28;80737;-65
2021/05/09 15:13:12;;;;;;;2.45;1.58;;;24.20;30.30;;;;;;6064151;28;80532;-65
2021/05/09 15:16:13;;;;;;;2.03;1.30;;;24.20;30.60;;;;;;6061380;28;81613;-65
2021/05/09 15:19:13;;;;;;;5.05;1.45;;;24.20;30.70;;;;;;6065159;28;81313;-66
2021/05/09 15:22:14;;;;;;;6.45;1.70;;;24.30;31.00;;;;;;6068037;28;80931;-65
2021/05/09 15:25:14;;;;;;;2.65;1.58;;;24.20;30.80;;;;;;6065934;28;83201;-65
2021/05/09 15:28:15;;;;;;;4.07;1.70;;;24.20;30.60;;;;;;6066154;28;81034;-64